sensor_id;sensor_type;location;lat;lon;timestamp;P1;durP1;ratioP1;P2;durP2;ratioP2
21213;SDS011;10764;50.850;2.904;2022-11-23T00:01:21;2.42;;;0.80;;
21213;SDS011;10764;50.850;2.904;2022-11-23T00:03:50;1.90;;;0.77;;
21213;SDS011;10764;50.850;2.904;2022-11-23T00:06:19;2.10;;;0.97;;
21213;SDS011;10764;50.850;2.904;2022-11-23T00:08:49;2.45;;;0.80;;
21213;SDS011;10764;50.850;2.904;2022-11-23T00:11:17;2.42;;;0.80;;
21213;SDS011;10764;50.850;2.904;2022-11-23T00:13:44;2.03;;;0.70;;
21213;SDS011;10764;50.850;2.904;2022-11-23T00:16:17;2.30;;;0.90;;
21213;SDS011;10764;50.850;2.904;2022-11-23T00:18:46;1.40;;;0.60;;
21213;SDS011;10764;50.850;2.904;2022-11-23T00:21:14;1.88;;;0.70;;
21213;SDS011;10764;50.850;2.904;2022-11-23T00:23:42;1.42;;;0.80;;
21213;SDS011;10764;50.850;2.904;2022-11-23T00:26:10;1.85;;;0.65;;
21213;SDS011;10764;50.850;2.904;2022-11-23T00:28:38;1.93;;;0.70;;
21213;SDS011;10764;50.850;2.904;2022-11-23T00:31:07;2.90;;;1.10;;
21213;SDS011;10764;50.850;2.904;2022-11-23T00:33:36;2.13;;;0.90;;
21213;SDS011;10764;50.850;2.904;2022-11-23T00:36:05;2.15;;;0.80;;
21213;SDS011;10764;50.850;2.904;2022-11-23T00:38:34;2.33;;;0.90;;
21213;SDS011;10764;50.850;2.904;2022-11-23T00:41:02;2.70;;;1.00;;
21213;SDS011;10764;50.850;2.904;2022-11-23T00:43:31;2.30;;;0.90;;
21213;SDS011;10764;50.850;2.904;2022-11-23T00:46:05;2.47;;;0.85;;
21213;SDS011;10764;50.850;2.904;2022-11-23T00:48:42;1.65;;;0.50;;
21213;SDS011;10764;50.850;2.904;2022-11-23T00:51:12;2.88;;;0.90;;
21213;SDS011;10764;50.850;2.904;2022-11-23T00:53:41;2.78;;;0.70;;
21213;SDS011;10764;50.850;2.904;2022-11-23T00:56:10;2.27;;;0.80;;
21213;SDS011;10764;50.850;2.904;2022-11-23T00:58:39;2.30;;;0.63;;
21213;SDS011;10764;50.850;2.904;2022-11-23T01:03:38;2.40;;;0.90;;
21213;SDS011;10764;50.850;2.904;2022-11-23T01:06:07;2.20;;;1.10;;
21213;SDS011;10764;50.850;2.904;2022-11-23T01:08:36;3.40;;;1.02;;
21213;SDS011;10764;50.850;2.904;2022-11-23T01:11:05;3.47;;;1.05;;
21213;SDS011;10764;50.850;2.904;2022-11-23T01:13:38;3.35;;;1.10;;
21213;SDS011;10764;50.850;2.904;2022-11-23T01:16:06;2.97;;;1.00;;
21213;SDS011;10764;50.850;2.904;2022-11-23T01:18:55;2.55;;;1.10;;
21213;SDS011;10764;50.850;2.904;2022-11-23T01:21:25;2.33;;;1.20;;
21213;SDS011;10764;50.850;2.904;2022-11-23T01:23:54;4.60;;;1.40;;
21213;SDS011;10764;50.850;2.904;2022-11-23T01:26:21;3.45;;;1.38;;
21213;SDS011;10764;50.850;2.904;2022-11-23T01:28:48;3.80;;;1.70;;
21213;SDS011;10764;50.850;2.904;2022-11-23T01:31:19;2.93;;;1.27;;
21213;SDS011;10764;50.850;2.904;2022-11-23T01:33:51;3.22;;;1.40;;
21213;SDS011;10764;50.850;2.904;2022-11-23T01:36:20;5.17;;;1.57;;
21213;SDS011;10764;50.850;2.904;2022-11-23T01:38:50;4.68;;;1.58;;
21213;SDS011;10764;50.850;2.904;2022-11-23T01:41:18;3.80;;;1.53;;
21213;SDS011;10764;50.850;2.904;2022-11-23T01:43:47;2.70;;;1.17;;
21213;SDS011;10764;50.850;2.904;2022-11-23T01:46:15;2.90;;;1.33;;
21213;SDS011;10764;50.850;2.904;2022-11-23T01:48:46;2.90;;;1.25;;
21213;SDS011;10764;50.850;2.904;2022-11-23T01:51:26;2.75;;;1.10;;
21213;SDS011;10764;50.850;2.904;2022-11-23T01:53:57;2.83;;;1.30;;
21213;SDS011;10764;50.850;2.904;2022-11-23T01:56:28;3.75;;;1.55;;
21213;SDS011;10764;50.850;2.904;2022-11-23T01:59:00;2.92;;;1.35;;
21213;SDS011;10764;50.850;2.904;2022-11-23T02:01:30;2.83;;;1.30;;
21213;SDS011;10764;50.850;2.904;2022-11-23T02:03:57;4.00;;;1.30;;
21213;SDS011;10764;50.850;2.904;2022-11-23T02:06:26;3.27;;;1.20;;
21213;SDS011;10764;50.850;2.904;2022-11-23T02:08:55;2.35;;;1.20;;
21213;SDS011;10764;50.850;2.904;2022-11-23T02:11:23;2.83;;;1.20;;
21213;SDS011;10764;50.850;2.904;2022-11-23T02:13:50;2.53;;;1.25;;
21213;SDS011;10764;50.850;2.904;2022-11-23T02:16:17;4.90;;;1.60;;
21213;SDS011;10764;50.850;2.904;2022-11-23T02:18:46;3.13;;;1.30;;
21213;SDS011;10764;50.850;2.904;2022-11-23T02:21:18;3.67;;;1.30;;
21213;SDS011;10764;50.850;2.904;2022-11-23T02:23:56;3.40;;;1.20;;
21213;SDS011;10764;50.850;2.904;2022-11-23T02:26:40;3.20;;;1.30;;
21213;SDS011;10764;50.850;2.904;2022-11-23T02:29:09;2.70;;;1.15;;
21213;SDS011;10764;50.850;2.904;2022-11-23T02:31:45;3.20;;;1.20;;
21213;SDS011;10764;50.850;2.904;2022-11-23T02:34:13;3.83;;;1.35;;
21213;SDS011;10764;50.850;2.904;2022-11-23T02:41:49;3.38;;;1.15;;
21213;SDS011;10764;50.850;2.904;2022-11-23T02:47:07;4.30;;;1.30;;
21213;SDS011;10764;50.850;2.904;2022-11-23T02:49:38;3.63;;;1.40;;
21213;SDS011;10764;50.850;2.904;2022-11-23T02:52:07;3.63;;;1.23;;
21213;SDS011;10764;50.850;2.904;2022-11-23T02:54:34;2.80;;;1.00;;
21213;SDS011;10764;50.850;2.904;2022-11-23T02:57:01;3.53;;;1.10;;
21213;SDS011;10764;50.850;2.904;2022-11-23T02:59:29;3.67;;;1.20;;
21213;SDS011;10764;50.850;2.904;2022-11-23T03:02:02;3.15;;;1.20;;
21213;SDS011;10764;50.850;2.904;2022-11-23T03:04:30;3.53;;;1.42;;
21213;SDS011;10764;50.850;2.904;2022-11-23T03:06:57;3.73;;;1.30;;
21213;SDS011;10764;50.850;2.904;2022-11-23T03:09:24;4.03;;;1.13;;
21213;SDS011;10764;50.850;2.904;2022-11-23T03:11:52;4.20;;;1.25;;
21213;SDS011;10764;50.850;2.904;2022-11-23T03:14:20;4.07;;;1.30;;
21213;SDS011;10764;50.850;2.904;2022-11-23T03:16:56;4.18;;;1.10;;
21213;SDS011;10764;50.850;2.904;2022-11-23T03:19:24;4.43;;;1.27;;
21213;SDS011;10764;50.850;2.904;2022-11-23T03:21:51;4.05;;;1.20;;
21213;SDS011;10764;50.850;2.904;2022-11-23T03:24:18;3.58;;;0.98;;
21213;SDS011;10764;50.850;2.904;2022-11-23T03:26:46;3.85;;;1.20;;
21213;SDS011;10764;50.850;2.904;2022-11-23T03:29:18;5.00;;;1.20;;
21213;SDS011;10764;50.850;2.904;2022-11-23T03:31:46;3.85;;;1.13;;
21213;SDS011;10764;50.850;2.904;2022-11-23T03:34:15;4.45;;;1.10;;
21213;SDS011;10764;50.850;2.904;2022-11-23T03:36:43;3.47;;;1.20;;
21213;SDS011;10764;50.850;2.904;2022-11-23T03:39:10;4.83;;;1.40;;
21213;SDS011;10764;50.850;2.904;2022-11-23T03:42:03;3.05;;;1.20;;
21213;SDS011;10764;50.850;2.904;2022-11-23T03:44:34;3.28;;;1.10;;
21213;SDS011;10764;50.850;2.904;2022-11-23T03:47:03;4.95;;;1.30;;
21213;SDS011;10764;50.850;2.904;2022-11-23T03:49:32;3.53;;;1.23;;
21213;SDS011;10764;50.850;2.904;2022-11-23T03:51:59;4.88;;;1.27;;
21213;SDS011;10764;50.850;2.904;2022-11-23T03:54:26;4.65;;;1.42;;
21213;SDS011;10764;50.850;2.904;2022-11-23T03:56:53;4.80;;;1.27;;
21213;SDS011;10764;50.850;2.904;2022-11-23T03:59:20;3.78;;;1.17;;
21213;SDS011;10764;50.850;2.904;2022-11-23T04:01:47;4.15;;;1.27;;
21213;SDS011;10764;50.850;2.904;2022-11-23T04:04:19;4.22;;;1.42;;
21213;SDS011;10764;50.850;2.904;2022-11-23T04:06:56;3.05;;;1.13;;
21213;SDS011;10764;50.850;2.904;2022-11-23T04:09:43;3.53;;;1.37;;
21213;SDS011;10764;50.850;2.904;2022-11-23T04:12:21;5.07;;;1.30;;
21213;SDS011;10764;50.850;2.904;2022-11-23T04:14:48;5.20;;;1.30;;
21213;SDS011;10764;50.850;2.904;2022-11-23T04:17:15;6.78;;;1.52;;
21213;SDS011;10764;50.850;2.904;2022-11-23T04:19:42;4.50;;;1.38;;
21213;SDS011;10764;50.850;2.904;2022-11-23T04:22:11;4.25;;;1.33;;
21213;SDS011;10764;50.850;2.904;2022-11-23T04:24:40;6.05;;;1.30;;
21213;SDS011;10764;50.850;2.904;2022-11-23T04:27:07;4.43;;;1.60;;
21213;SDS011;10764;50.850;2.904;2022-11-23T04:29:35;5.13;;;1.42;;
21213;SDS011;10764;50.850;2.904;2022-11-23T04:32:02;3.95;;;1.23;;
21213;SDS011;10764;50.850;2.904;2022-11-23T04:34:29;5.10;;;1.50;;
21213;SDS011;10764;50.850;2.904;2022-11-23T04:36:58;5.18;;;1.27;;
21213;SDS011;10764;50.850;2.904;2022-11-23T04:39:30;5.72;;;1.20;;
21213;SDS011;10764;50.850;2.904;2022-11-23T04:42:14;4.13;;;1.08;;
21213;SDS011;10764;50.850;2.904;2022-11-23T04:44:47;4.45;;;1.17;;
21213;SDS011;10764;50.850;2.904;2022-11-23T04:47:15;4.35;;;1.27;;
21213;SDS011;10764;50.850;2.904;2022-11-23T04:49:44;5.18;;;1.30;;
21213;SDS011;10764;50.850;2.904;2022-11-23T04:52:12;4.75;;;1.40;;
21213;SDS011;10764;50.850;2.904;2022-11-23T04:54:44;3.75;;;1.25;;
21213;SDS011;10764;50.850;2.904;2022-11-23T04:57:10;5.88;;;1.50;;
21213;SDS011;10764;50.850;2.904;2022-11-23T04:59:38;3.50;;;0.87;;
21213;SDS011;10764;50.850;2.904;2022-11-23T05:02:05;3.42;;;1.10;;
21213;SDS011;10764;50.850;2.904;2022-11-23T05:04:45;4.43;;;1.10;;
21213;SDS011;10764;50.850;2.904;2022-11-23T05:07:14;3.55;;;1.13;;
21213;SDS011;10764;50.850;2.904;2022-11-23T05:09:44;3.88;;;1.10;;
21213;SDS011;10764;50.850;2.904;2022-11-23T05:12:15;4.70;;;1.10;;
21213;SDS011;10764;50.850;2.904;2022-11-23T05:14:42;3.92;;;1.30;;
21213;SDS011;10764;50.850;2.904;2022-11-23T05:17:12;4.90;;;1.15;;
21213;SDS011;10764;50.850;2.904;2022-11-23T05:19:40;4.03;;;1.10;;
21213;SDS011;10764;50.850;2.904;2022-11-23T05:22:07;4.80;;;1.37;;
21213;SDS011;10764;50.850;2.904;2022-11-23T05:24:36;3.58;;;1.30;;
21213;SDS011;10764;50.850;2.904;2022-11-23T05:27:07;5.57;;;1.10;;
21213;SDS011;10764;50.850;2.904;2022-11-23T05:29:34;2.90;;;1.02;;
21213;SDS011;10764;50.850;2.904;2022-11-23T05:32:04;3.88;;;1.05;;
21213;SDS011;10764;50.850;2.904;2022-11-23T05:34:31;4.15;;;1.30;;
21213;SDS011;10764;50.850;2.904;2022-11-23T05:36:59;5.10;;;1.20;;
21213;SDS011;10764;50.850;2.904;2022-11-23T05:39:26;3.97;;;1.20;;
21213;SDS011;10764;50.850;2.904;2022-11-23T05:41:53;4.90;;;1.23;;
21213;SDS011;10764;50.850;2.904;2022-11-23T05:44:40;4.32;;;1.17;;
21213;SDS011;10764;50.850;2.904;2022-11-23T05:47:13;5.40;;;1.20;;
21213;SDS011;10764;50.850;2.904;2022-11-23T05:49:40;4.03;;;1.20;;
21213;SDS011;10764;50.850;2.904;2022-11-23T05:52:07;4.22;;;1.25;;
21213;SDS011;10764;50.850;2.904;2022-11-23T05:54:35;4.73;;;1.47;;
21213;SDS011;10764;50.850;2.904;2022-11-23T05:57:11;5.28;;;1.50;;
21213;SDS011;10764;50.850;2.904;2022-11-23T05:59:39;4.82;;;1.15;;
21213;SDS011;10764;50.850;2.904;2022-11-23T06:02:09;4.68;;;1.30;;
21213;SDS011;10764;50.850;2.904;2022-11-23T06:04:36;3.17;;;1.33;;
21213;SDS011;10764;50.850;2.904;2022-11-23T06:07:06;4.45;;;1.35;;
21213;SDS011;10764;50.850;2.904;2022-11-23T06:09:47;5.67;;;1.40;;
21213;SDS011;10764;50.850;2.904;2022-11-23T06:12:14;5.28;;;1.50;;
21213;SDS011;10764;50.850;2.904;2022-11-23T06:14:41;3.60;;;1.02;;
21213;SDS011;10764;50.850;2.904;2022-11-23T06:17:09;4.97;;;1.17;;
21213;SDS011;10764;50.850;2.904;2022-11-23T06:19:41;6.40;;;1.20;;
21213;SDS011;10764;50.850;2.904;2022-11-23T06:22:09;3.88;;;1.10;;
21213;SDS011;10764;50.850;2.904;2022-11-23T06:24:43;3.60;;;1.20;;
21213;SDS011;10764;50.850;2.904;2022-11-23T06:27:28;4.95;;;1.60;;
21213;SDS011;10764;50.850;2.904;2022-11-23T06:29:56;4.63;;;1.30;;
21213;SDS011;10764;50.850;2.904;2022-11-23T06:32:25;5.32;;;1.40;;
21213;SDS011;10764;50.850;2.904;2022-11-23T06:34:52;5.43;;;1.40;;
21213;SDS011;10764;50.850;2.904;2022-11-23T06:37:25;4.13;;;1.30;;
21213;SDS011;10764;50.850;2.904;2022-11-23T06:39:52;5.00;;;1.45;;
21213;SDS011;10764;50.850;2.904;2022-11-23T06:42:18;4.37;;;1.47;;
21213;SDS011;10764;50.850;2.904;2022-11-23T06:45:17;5.87;;;1.40;;
21213;SDS011;10764;50.850;2.904;2022-11-23T06:47:45;5.00;;;1.50;;
21213;SDS011;10764;50.850;2.904;2022-11-23T06:50:12;5.68;;;1.30;;
21213;SDS011;10764;50.850;2.904;2022-11-23T06:52:42;5.47;;;1.60;;
21213;SDS011;10764;50.850;2.904;2022-11-23T06:55:08;4.13;;;1.23;;
21213;SDS011;10764;50.850;2.904;2022-11-23T06:57:35;3.40;;;1.20;;
21213;SDS011;10764;50.850;2.904;2022-11-23T07:00:02;3.88;;;1.23;;
21213;SDS011;10764;50.850;2.904;2022-11-23T07:02:35;4.53;;;1.70;;
21213;SDS011;10764;50.850;2.904;2022-11-23T07:05:01;6.27;;;1.50;;
21213;SDS011;10764;50.850;2.904;2022-11-23T07:07:30;4.25;;;1.42;;
21213;SDS011;10764;50.850;2.904;2022-11-23T07:10:05;5.25;;;1.58;;
21213;SDS011;10764;50.850;2.904;2022-11-23T07:12:44;4.53;;;1.60;;
21213;SDS011;10764;50.850;2.904;2022-11-23T07:15:14;3.78;;;1.27;;
21213;SDS011;10764;50.850;2.904;2022-11-23T07:17:43;4.78;;;1.58;;
21213;SDS011;10764;50.850;2.904;2022-11-23T07:20:10;4.47;;;1.25;;
21213;SDS011;10764;50.850;2.904;2022-11-23T07:22:38;6.85;;;1.40;;
21213;SDS011;10764;50.850;2.904;2022-11-23T07:25:06;5.67;;;1.50;;
21213;SDS011;10764;50.850;2.904;2022-11-23T07:27:33;5.32;;;1.65;;
21213;SDS011;10764;50.850;2.904;2022-11-23T07:30:01;4.53;;;1.50;;
21213;SDS011;10764;50.850;2.904;2022-11-23T07:32:28;6.18;;;2.03;;
21213;SDS011;10764;50.850;2.904;2022-11-23T07:34:55;5.38;;;1.75;;
21213;SDS011;10764;50.850;2.904;2022-11-23T07:37:23;5.55;;;1.75;;
21213;SDS011;10764;50.850;2.904;2022-11-23T07:39:50;4.10;;;1.58;;
21213;SDS011;10764;50.850;2.904;2022-11-23T07:42:25;5.13;;;1.85;;
21213;SDS011;10764;50.850;2.904;2022-11-23T07:45:08;5.38;;;1.83;;
21213;SDS011;10764;50.850;2.904;2022-11-23T07:47:37;5.50;;;1.97;;
21213;SDS011;10764;50.850;2.904;2022-11-23T07:50:05;4.88;;;1.70;;
21213;SDS011;10764;50.850;2.904;2022-11-23T07:52:34;5.28;;;1.90;;
21213;SDS011;10764;50.850;2.904;2022-11-23T07:55:02;5.40;;;1.63;;
21213;SDS011;10764;50.850;2.904;2022-11-23T07:57:29;5.60;;;2.00;;
21213;SDS011;10764;50.850;2.904;2022-11-23T07:59:56;6.45;;;2.10;;
21213;SDS011;10764;50.850;2.904;2022-11-23T08:02:23;5.93;;;1.88;;
21213;SDS011;10764;50.850;2.904;2022-11-23T08:04:50;7.10;;;2.30;;
21213;SDS011;10764;50.850;2.904;2022-11-23T08:07:17;5.80;;;1.80;;
21213;SDS011;10764;50.850;2.904;2022-11-23T08:09:44;5.18;;;1.70;;
21213;SDS011;10764;50.850;2.904;2022-11-23T08:12:11;4.13;;;1.60;;
21213;SDS011;10764;50.850;2.904;2022-11-23T08:14:37;4.75;;;1.50;;
21213;SDS011;10764;50.850;2.904;2022-11-23T08:17:04;4.55;;;1.63;;
21213;SDS011;10764;50.850;2.904;2022-11-23T08:19:31;5.38;;;1.58;;
21213;SDS011;10764;50.850;2.904;2022-11-23T08:21:58;4.22;;;1.63;;
21213;SDS011;10764;50.850;2.904;2022-11-23T08:24:25;7.38;;;2.30;;
21213;SDS011;10764;50.850;2.904;2022-11-23T08:26:51;5.33;;;1.60;;
21213;SDS011;10764;50.850;2.904;2022-11-23T08:29:18;4.13;;;1.50;;
21213;SDS011;10764;50.850;2.904;2022-11-23T08:31:45;6.03;;;1.70;;
21213;SDS011;10764;50.850;2.904;2022-11-23T08:34:12;6.38;;;1.70;;
21213;SDS011;10764;50.850;2.904;2022-11-23T08:36:39;6.33;;;1.90;;
21213;SDS011;10764;50.850;2.904;2022-11-23T08:39:06;4.88;;;1.65;;
21213;SDS011;10764;50.850;2.904;2022-11-23T08:41:36;4.28;;;1.52;;
21213;SDS011;10764;50.850;2.904;2022-11-23T08:44:03;5.07;;;1.67;;
21213;SDS011;10764;50.850;2.904;2022-11-23T08:46:30;4.63;;;1.60;;
21213;SDS011;10764;50.850;2.904;2022-11-23T08:48:57;3.57;;;1.40;;
21213;SDS011;10764;50.850;2.904;2022-11-23T08:51:24;6.18;;;1.75;;
21213;SDS011;10764;50.850;2.904;2022-11-23T08:53:51;5.07;;;1.63;;
21213;SDS011;10764;50.850;2.904;2022-11-23T08:56:18;8.88;;;1.65;;
21213;SDS011;10764;50.850;2.904;2022-11-23T08:58:45;8.57;;;1.98;;
21213;SDS011;10764;50.850;2.904;2022-11-23T09:01:13;7.38;;;1.83;;
21213;SDS011;10764;50.850;2.904;2022-11-23T09:03:41;8.90;;;1.95;;
21213;SDS011;10764;50.850;2.904;2022-11-23T09:06:08;6.82;;;2.00;;
21213;SDS011;10764;50.850;2.904;2022-11-23T09:08:36;9.63;;;1.75;;
21213;SDS011;10764;50.850;2.904;2022-11-23T09:11:04;10.60;;;1.90;;
21213;SDS011;10764;50.850;2.904;2022-11-23T09:13:34;13.60;;;2.45;;
21213;SDS011;10764;50.850;2.904;2022-11-23T09:16:02;11.97;;;2.30;;
21213;SDS011;10764;50.850;2.904;2022-11-23T09:18:31;11.40;;;2.00;;
21213;SDS011;10764;50.850;2.904;2022-11-23T09:21:00;9.57;;;2.38;;
21213;SDS011;10764;50.850;2.904;2022-11-23T09:23:30;10.97;;;2.23;;
21213;SDS011;10764;50.850;2.904;2022-11-23T09:25:58;10.30;;;2.90;;
21213;SDS011;10764;50.850;2.904;2022-11-23T09:28:26;10.65;;;2.53;;
21213;SDS011;10764;50.850;2.904;2022-11-23T09:30:54;11.40;;;2.30;;
21213;SDS011;10764;50.850;2.904;2022-11-23T09:33:22;8.60;;;2.15;;
21213;SDS011;10764;50.850;2.904;2022-11-23T09:35:59;10.68;;;2.50;;
21213;SDS011;10764;50.850;2.904;2022-11-23T09:38:28;10.33;;;2.43;;
21213;SDS011;10764;50.850;2.904;2022-11-23T09:44:19;14.80;;;2.77;;
21213;SDS011;10764;50.850;2.904;2022-11-23T09:47:30;11.77;;;2.58;;
21213;SDS011;10764;50.850;2.904;2022-11-23T09:50:14;10.20;;;2.30;;
21213;SDS011;10764;50.850;2.904;2022-11-23T09:52:53;10.38;;;2.95;;
21213;SDS011;10764;50.850;2.904;2022-11-23T09:55:28;11.85;;;2.20;;
21213;SDS011;10764;50.850;2.904;2022-11-23T09:58:03;9.75;;;2.13;;
21213;SDS011;10764;50.850;2.904;2022-11-23T10:00:34;8.55;;;2.10;;
21213;SDS011;10764;50.850;2.904;2022-11-23T10:03:04;7.78;;;2.30;;
21213;SDS011;10764;50.850;2.904;2022-11-23T10:05:32;10.82;;;2.03;;
21213;SDS011;10764;50.850;2.904;2022-11-23T10:08:05;8.73;;;1.80;;
21213;SDS011;10764;50.850;2.904;2022-11-23T10:11:00;8.33;;;2.30;;
21213;SDS011;10764;50.850;2.904;2022-11-23T10:21:49;8.13;;;2.03;;
21213;SDS011;10764;50.850;2.904;2022-11-23T10:24:19;8.25;;;1.95;;
21213;SDS011;10764;50.850;2.904;2022-11-23T10:26:51;7.38;;;1.70;;
21213;SDS011;10764;50.850;2.904;2022-11-23T10:29:24;7.30;;;1.83;;
21213;SDS011;10764;50.850;2.904;2022-11-23T10:31:57;7.63;;;2.10;;
21213;SDS011;10764;50.850;2.904;2022-11-23T10:36:51;6.13;;;1.60;;
21213;SDS011;10764;50.850;2.904;2022-11-23T10:39:24;8.38;;;1.92;;
21213;SDS011;10764;50.850;2.904;2022-11-23T10:41:52;4.83;;;1.60;;
21213;SDS011;10764;50.850;2.904;2022-11-23T10:44:32;5.05;;;1.42;;
21213;SDS011;10764;50.850;2.904;2022-11-23T10:47:03;5.68;;;1.48;;
21213;SDS011;10764;50.850;2.904;2022-11-23T10:49:31;5.93;;;2.15;;
21213;SDS011;10764;50.850;2.904;2022-11-23T10:52:00;3.97;;;1.40;;
21213;SDS011;10764;50.850;2.904;2022-11-23T10:56:58;5.18;;;1.42;;
21213;SDS011;10764;50.850;2.904;2022-11-23T10:59:33;4.27;;;1.40;;
21213;SDS011;10764;50.850;2.904;2022-11-23T11:02:20;4.65;;;1.38;;
21213;SDS011;10764;50.850;2.904;2022-11-23T11:04:48;3.58;;;1.30;;
21213;SDS011;10764;50.850;2.904;2022-11-23T11:07:29;5.43;;;1.60;;
21213;SDS011;10764;50.850;2.904;2022-11-23T11:09:58;3.78;;;1.40;;
21213;SDS011;10764;50.850;2.904;2022-11-23T11:12:27;4.40;;;1.48;;
21213;SDS011;10764;50.850;2.904;2022-11-23T11:14:58;5.72;;;1.88;;
21213;SDS011;10764;50.850;2.904;2022-11-23T11:17:38;3.80;;;1.50;;
21213;SDS011;10764;50.850;2.904;2022-11-23T11:20:24;4.60;;;1.27;;
21213;SDS011;10764;50.850;2.904;2022-11-23T11:23:03;4.77;;;1.77;;
21213;SDS011;10764;50.850;2.904;2022-11-23T11:25:46;4.47;;;1.75;;
21213;SDS011;10764;50.850;2.904;2022-11-23T11:28:35;3.45;;;1.35;;
21213;SDS011;10764;50.850;2.904;2022-11-23T11:37:01;4.25;;;1.48;;
21213;SDS011;10764;50.850;2.904;2022-11-23T11:39:46;5.50;;;1.75;;
21213;SDS011;10764;50.850;2.904;2022-11-23T11:42:32;6.03;;;1.50;;
21213;SDS011;10764;50.850;2.904;2022-11-23T11:45:02;4.00;;;1.30;;
21213;SDS011;10764;50.850;2.904;2022-11-23T11:47:36;3.15;;;1.40;;
21213;SDS011;10764;50.850;2.904;2022-11-23T11:50:16;3.83;;;1.60;;
21213;SDS011;10764;50.850;2.904;2022-11-23T11:52:55;3.65;;;1.30;;
21213;SDS011;10764;50.850;2.904;2022-11-23T11:56:11;5.25;;;1.80;;
21213;SDS011;10764;50.850;2.904;2022-11-23T11:58:18;4.95;;;1.65;;
21213;SDS011;10764;50.850;2.904;2022-11-23T12:00:47;3.63;;;1.50;;
21213;SDS011;10764;50.850;2.904;2022-11-23T12:05:53;4.55;;;1.70;;
21213;SDS011;10764;50.850;2.904;2022-11-23T12:08:32;3.25;;;1.40;;
21213;SDS011;10764;50.850;2.904;2022-11-23T12:11:21;3.88;;;1.48;;
21213;SDS011;10764;50.850;2.904;2022-11-23T12:13:48;3.80;;;1.55;;
21213;SDS011;10764;50.850;2.904;2022-11-23T12:19:17;3.97;;;1.50;;
21213;SDS011;10764;50.850;2.904;2022-11-23T12:35:42;4.28;;;1.35;;
21213;SDS011;10764;50.850;2.904;2022-11-23T12:38:32;4.50;;;1.50;;
21213;SDS011;10764;50.850;2.904;2022-11-23T12:46:35;3.88;;;1.55;;
21213;SDS011;10764;50.850;2.904;2022-11-23T12:57:51;4.03;;;1.27;;
21213;SDS011;10764;50.850;2.904;2022-11-23T13:00:36;3.65;;;1.25;;
21213;SDS011;10764;50.850;2.904;2022-11-23T13:03:21;2.80;;;1.27;;
21213;SDS011;10764;50.850;2.904;2022-11-23T13:06:06;3.83;;;1.10;;
21213;SDS011;10764;50.850;2.904;2022-11-23T13:11:54;3.78;;;1.30;;
21213;SDS011;10764;50.850;2.904;2022-11-23T13:14:39;2.70;;;1.27;;
21213;SDS011;10764;50.850;2.904;2022-11-23T13:17:33;2.70;;;1.07;;
21213;SDS011;10764;50.850;2.904;2022-11-23T13:20:24;3.38;;;1.30;;
21213;SDS011;10764;50.850;2.904;2022-11-23T13:22:54;3.20;;;1.25;;
21213;SDS011;10764;50.850;2.904;2022-11-23T13:30:33;3.03;;;1.30;;
21213;SDS011;10764;50.850;2.904;2022-11-23T13:33:27;2.60;;;1.08;;
21213;SDS011;10764;50.850;2.904;2022-11-23T13:36:03;2.45;;;1.25;;
21213;SDS011;10764;50.850;2.904;2022-11-23T13:38:39;1.87;;;0.90;;
21213;SDS011;10764;50.850;2.904;2022-11-23T13:44:19;3.57;;;1.60;;
21213;SDS011;10764;50.850;2.904;2022-11-23T13:52:05;4.40;;;1.63;;
21213;SDS011;10764;50.850;2.904;2022-11-23T13:57:35;3.40;;;1.25;;
21213;SDS011;10764;50.850;2.904;2022-11-23T14:09:03;3.25;;;1.20;;
21213;SDS011;10764;50.850;2.904;2022-11-23T14:11:47;3.13;;;1.20;;
21213;SDS011;10764;50.850;2.904;2022-11-23T14:14:17;4.20;;;1.30;;
21213;SDS011;10764;50.850;2.904;2022-11-23T14:25:20;4.25;;;1.42;;
21213;SDS011;10764;50.850;2.904;2022-11-23T14:31:14;3.47;;;1.10;;
21213;SDS011;10764;50.850;2.904;2022-11-23T14:41:59;2.00;;;1.00;;
21213;SDS011;10764;50.850;2.904;2022-11-23T14:44:29;2.55;;;1.05;;
21213;SDS011;10764;50.850;2.904;2022-11-23T14:47:05;2.70;;;1.10;;
21213;SDS011;10764;50.850;2.904;2022-11-23T14:49:34;3.78;;;0.82;;
21213;SDS011;10764;50.850;2.904;2022-11-23T14:52:02;2.38;;;1.00;;
21213;SDS011;10764;50.850;2.904;2022-11-23T14:54:29;2.53;;;1.00;;
21213;SDS011;10764;50.850;2.904;2022-11-23T14:56:59;2.05;;;0.80;;
21213;SDS011;10764;50.850;2.904;2022-11-23T14:59:34;2.83;;;1.03;;
21213;SDS011;10764;50.850;2.904;2022-11-23T15:02:16;2.63;;;1.10;;
21213;SDS011;10764;50.850;2.904;2022-11-23T15:10:26;2.30;;;1.05;;
21213;SDS011;10764;50.850;2.904;2022-11-23T15:15:43;2.28;;;0.90;;
21213;SDS011;10764;50.850;2.904;2022-11-23T15:18:10;2.45;;;0.85;;
21213;SDS011;10764;50.850;2.904;2022-11-23T15:20:43;2.08;;;1.08;;
21213;SDS011;10764;50.850;2.904;2022-11-23T15:23:18;2.65;;;0.93;;
21213;SDS011;10764;50.850;2.904;2022-11-23T15:25:51;2.60;;;1.10;;
21213;SDS011;10764;50.850;2.904;2022-11-23T15:28:21;3.58;;;1.20;;
21213;SDS011;10764;50.850;2.904;2022-11-23T15:30:51;1.77;;;0.90;;
21213;SDS011;10764;50.850;2.904;2022-11-23T15:33:24;2.80;;;0.90;;
21213;SDS011;10764;50.850;2.904;2022-11-23T15:35:51;2.97;;;1.05;;
21213;SDS011;10764;50.850;2.904;2022-11-23T15:38:19;2.70;;;1.08;;
21213;SDS011;10764;50.850;2.904;2022-11-23T15:40:49;3.27;;;0.90;;
21213;SDS011;10764;50.850;2.904;2022-11-23T15:43:17;3.33;;;1.20;;
21213;SDS011;10764;50.850;2.904;2022-11-23T15:48:16;2.72;;;0.95;;
21213;SDS011;10764;50.850;2.904;2022-11-23T15:50:55;3.60;;;1.00;;
21213;SDS011;10764;50.850;2.904;2022-11-23T15:53:25;3.22;;;1.10;;
21213;SDS011;10764;50.850;2.904;2022-11-23T15:55:57;2.90;;;0.98;;
21213;SDS011;10764;50.850;2.904;2022-11-23T15:58:26;2.90;;;1.00;;
21213;SDS011;10764;50.850;2.904;2022-11-23T16:00:55;3.40;;;1.10;;
21213;SDS011;10764;50.850;2.904;2022-11-23T16:08:38;3.15;;;1.00;;
21213;SDS011;10764;50.850;2.904;2022-11-23T16:13:51;2.53;;;1.00;;
21213;SDS011;10764;50.850;2.904;2022-11-23T16:16:35;4.18;;;1.23;;
21213;SDS011;10764;50.850;2.904;2022-11-23T16:19:21;3.75;;;1.42;;
21213;SDS011;10764;50.850;2.904;2022-11-23T16:21:57;3.73;;;1.03;;
21213;SDS011;10764;50.850;2.904;2022-11-23T16:24:28;3.50;;;1.20;;
21213;SDS011;10764;50.850;2.904;2022-11-23T16:26:58;2.78;;;1.02;;
21213;SDS011;10764;50.850;2.904;2022-11-23T16:29:25;5.50;;;1.30;;
21213;SDS011;10764;50.850;2.904;2022-11-23T16:31:58;4.85;;;1.40;;
21213;SDS011;10764;50.850;2.904;2022-11-23T16:34:26;4.10;;;1.10;;
21213;SDS011;10764;50.850;2.904;2022-11-23T16:36:53;4.07;;;1.38;;
21213;SDS011;10764;50.850;2.904;2022-11-23T16:39:22;4.60;;;1.15;;
21213;SDS011;10764;50.850;2.904;2022-11-23T16:41:49;4.40;;;1.42;;
21213;SDS011;10764;50.850;2.904;2022-11-23T16:44:17;4.73;;;1.40;;
21213;SDS011;10764;50.850;2.904;2022-11-23T16:46:45;4.78;;;1.42;;
21213;SDS011;10764;50.850;2.904;2022-11-23T16:49:13;4.97;;;1.50;;
21213;SDS011;10764;50.850;2.904;2022-11-23T16:51:43;5.18;;;1.67;;
21213;SDS011;10764;50.850;2.904;2022-11-23T16:54:11;5.53;;;1.60;;
21213;SDS011;10764;50.850;2.904;2022-11-23T16:56:41;4.97;;;1.45;;
21213;SDS011;10764;50.850;2.904;2022-11-23T16:59:12;5.13;;;1.70;;
21213;SDS011;10764;50.850;2.904;2022-11-23T17:01:41;5.07;;;1.50;;
21213;SDS011;10764;50.850;2.904;2022-11-23T17:04:12;5.78;;;1.70;;
21213;SDS011;10764;50.850;2.904;2022-11-23T17:06:43;5.00;;;1.40;;
21213;SDS011;10764;50.850;2.904;2022-11-23T17:09:10;6.70;;;1.83;;
21213;SDS011;10764;50.850;2.904;2022-11-23T17:11:39;6.63;;;1.80;;
21213;SDS011;10764;50.850;2.904;2022-11-23T17:14:09;4.70;;;1.50;;
21213;SDS011;10764;50.850;2.904;2022-11-23T17:16:43;4.50;;;1.53;;
21213;SDS011;10764;50.850;2.904;2022-11-23T17:19:15;5.20;;;1.55;;
21213;SDS011;10764;50.850;2.904;2022-11-23T17:21:43;4.18;;;1.45;;
21213;SDS011;10764;50.850;2.904;2022-11-23T17:24:11;4.88;;;1.80;;
21213;SDS011;10764;50.850;2.904;2022-11-23T17:26:43;5.40;;;1.70;;